Time;durP1;ratioP1;P1;durP2;ratioP2;P2;SDS_P1;SDS_P2;PMS_P1;PMS_P2;Temp;Humidity;BMP_temperature;BMP_pressure;BME280_temperature;BME280_humidity;BME280_pressure;Samples;Min_cycle;Max_cycle;Signal;HPM_P1;HPM_P2
2023/12/25 00:00:04;;;;;;;2.83;2.63;;;11.70;99.90;;;;;;5140529;27;20461;-64
2023/12/25 00:02:32;;;;;;;4.93;2.70;;;11.70;99.90;;;;;;5140407;27;20939;-64
2023/12/25 00:04:58;;;;;;;4.90;2.87;;;11.60;99.90;;;;;;5138822;27;20473;-65
2023/12/25 00:07:25;;;;;;;4.03;2.90;;;11.70;99.90;;;;;;5120058;27;20469;-65
2023/12/25 00:09:52;;;;;;;5.43;2.73;;;11.70;99.90;;;;;;5138105;27;20470;-65
2023/12/25 00:12:19;;;;;;;2.93;2.30;;;11.60;99.90;;;;;;5138591;27;21000;-65
2023/12/25 00:14:45;;;;;;;6.13;2.73;;;11.70;99.90;;;;;;5120304;27;20536;-65
2023/12/25 00:17:14;;;;;;;4.00;2.87;;;11.70;99.90;;;;;;5138308;27;20485;-65
2023/12/25 00:19:41;;;;;;;2.40;2.20;;;11.70;99.90;;;;;;5138909;27;20905;-65
2023/12/25 00:22:08;;;;;;;2.40;2.20;;;11.80;99.90;;;;;;5138751;27;20438;-65
2023/12/25 00:24:35;;;;;;;9.20;3.50;;;11.80;99.90;;;;;;5120364;27;20943;-65
2023/12/25 00:27:01;;;;;;;7.10;2.97;;;11.70;99.90;;;;;;5138448;27;20445;-65
2023/12/25 00:29:28;;;;;;;3.40;2.47;;;11.70;99.90;;;;;;5138401;27;20469;-65
2023/12/25 00:31:55;;;;;;;2.27;2.10;;;11.80;99.90;;;;;;5138384;27;20438;-65
2023/12/25 00:34:23;;;;;;;4.50;2.60;;;11.80;99.90;;;;;;5138578;27;20441;-65
2023/12/25 00:36:50;;;;;;;2.40;2.20;;;11.80;99.90;;;;;;5138214;27;20474;-65
2023/12/25 00:39:19;;;;;;;3.10;2.50;;;11.80;99.90;;;;;;5138408;27;20462;-65
2023/12/25 00:41:46;;;;;;;3.17;2.87;;;11.80;99.90;;;;;;5138551;27;20864;-65
2023/12/25 00:44:12;;;;;;;5.23;2.30;;;11.80;99.90;;;;;;5138686;27;20442;-65
2023/12/25 00:46:39;;;;;;;2.10;2.00;;;11.80;99.90;;;;;;5139008;27;20430;-65
2023/12/25 00:49:07;;;;;;;2.93;2.13;;;11.80;99.90;;;;;;5138438;27;20939;-65
2023/12/25 00:51:35;;;;;;;2.77;1.80;;;11.80;99.90;;;;;;5137907;27;20446;-65
2023/12/25 00:54:02;;;;;;;2.30;2.07;;;11.80;99.90;;;;;;5138287;27;20438;-65
2023/12/25 00:56:29;;;;;;;2.23;1.90;;;11.80;99.90;;;;;;5138040;27;20493;-65
2023/12/25 00:58:55;;;;;;;2.80;1.80;;;11.80;99.90;;;;;;5118978;27;20438;-65
2023/12/25 01:01:22;;;;;;;2.47;2.10;;;11.80;99.90;;;;;;5137543;27;20449;-65
2023/12/25 01:03:49;;;;;;;4.47;2.00;;;11.80;99.90;;;;;;5137357;27;20807;-65
2023/12/25 01:06:16;;;;;;;2.23;1.90;;;11.80;99.90;;;;;;5119292;27;20438;-65
2023/12/25 01:08:44;;;;;;;2.50;1.60;;;11.90;99.90;;;;;;5119676;27;20441;-66
2023/12/25 01:11:11;;;;;;;1.90;1.70;;;11.90;99.90;;;;;;5137558;27;20462;-66
2023/12/25 01:13:37;;;;;;;2.53;1.77;;;11.90;99.90;;;;;;5137488;27;20931;-65
2023/12/25 01:16:05;;;;;;;2.60;1.80;;;11.80;99.90;;;;;;5137811;27;20474;-65
2023/12/25 01:18:32;;;;;;;2.17;1.97;;;11.80;99.90;;;;;;5137384;27;20487;-65
2023/12/25 01:20:58;;;;;;;2.73;2.07;;;11.80;99.90;;;;;;5137324;27;20530;-65
2023/12/25 01:23:25;;;;;;;3.23;1.73;;;11.80;99.90;;;;;;5137873;27;20438;-65
2023/12/25 01:25:53;;;;;;;3.37;1.60;;;11.80;99.90;;;;;;5137735;27;20437;-65
2023/12/25 01:28:20;;;;;;;3.60;1.67;;;11.80;99.90;;;;;;5137640;27;20485;-65
2023/12/25 01:30:47;;;;;;;2.50;1.80;;;11.80;99.90;;;;;;5137846;27;20466;-65
2023/12/25 01:33:14;;;;;;;2.13;1.90;;;11.90;99.90;;;;;;5119595;27;20442;-65
2023/12/25 01:35:40;;;;;;;1.70;1.60;;;11.90;99.90;;;;;;5119285;27;20495;-66
2023/12/25 01:38:07;;;;;;;1.50;1.40;;;12.00;99.90;;;;;;5139455;27;20446;-66
2023/12/25 01:40:36;;;;;;;2.43;2.17;;;12.00;99.90;;;;;;5138843;27;20465;-65
2023/12/25 01:43:04;;;;;;;1.90;1.60;;;12.00;99.90;;;;;;5136804;27;20441;-66
2023/12/25 01:45:31;;;;;;;2.27;1.93;;;12.00;99.90;;;;;;5136600;27;20434;-66
2023/12/25 01:47:57;;;;;;;1.90;1.80;;;12.00;99.90;;;;;;5137116;27;20803;-65
2023/12/25 01:50:24;;;;;;;2.90;1.57;;;12.00;99.90;;;;;;5137355;27;20467;-65
2023/12/25 01:52:53;;;;;;;2.80;1.60;;;12.00;99.90;;;;;;5138117;27;20449;-65
2023/12/25 01:55:20;;;;;;;4.30;1.83;;;12.00;99.90;;;;;;5138132;27;20458;-66
2023/12/25 01:57:47;;;;;;;2.33;1.60;;;12.00;99.90;;;;;;5137906;27;20481;-65
2023/12/25 02:00:17;;;;;;;1.30;1.20;;;12.00;99.90;;;;;;5119926;27;20461;-65
2023/12/25 02:02:44;;;;;;;1.30;1.20;;;12.00;99.90;;;;;;5138350;27;20436;-65
2023/12/25 02:05:12;;;;;;;1.67;1.57;;;12.00;99.90;;;;;;5137500;27;20957;-65
2023/12/25 02:07:40;;;;;;;1.70;1.53;;;12.00;99.90;;;;;;5137900;27;20446;-65
2023/12/25 02:10:09;;;;;;;3.00;1.47;;;12.00;99.90;;;;;;5120532;27;20485;-65
2023/12/25 02:12:35;;;;;;;1.73;1.63;;;12.10;99.90;;;;;;5138478;27;20462;-65
2023/12/25 02:15:02;;;;;;;7.80;3.00;;;12.10;99.90;;;;;;5140835;27;20797;-64
2023/12/25 02:17:31;;;;;;;2.47;1.50;;;12.10;99.90;;;;;;5138883;27;20474;-64
2023/12/25 02:19:58;;;;;;;1.90;1.60;;;12.10;99.90;;;;;;5135920;27;20462;-65
2023/12/25 02:22:25;;;;;;;2.33;1.63;;;12.00;99.90;;;;;;5136245;28;20442;-65
2023/12/25 02:25:00;;;;;;;2.83;1.40;;;12.00;99.90;;;;;;5118097;28;20494;-65
2023/12/25 02:27:29;;;;;;;1.73;1.20;;;12.00;99.90;;;;;;5136272;28;20476;-65
2023/12/25 02:29:55;;;;;;;2.20;2.00;;;12.00;99.90;;;;;;5136342;28;20482;-65
2023/12/25 02:32:22;;;;;;;1.60;1.50;;;12.00;99.90;;;;;;5135986;28;20434;-65
2023/12/25 02:34:48;;;;;;;1.60;1.30;;;12.00;99.90;;;;;;5136568;28;20490;-65
2023/12/25 02:37:15;;;;;;;1.90;1.30;;;12.00;99.90;;;;;;5136605;28;20477;-65
2023/12/25 02:39:42;;;;;;;0.87;0.70;;;12.00;99.90;;;;;;5137105;28;20220;-64
2023/12/25 02:42:08;;;;;;;2.60;1.13;;;12.10;99.90;;;;;;5118790;28;21008;-64
2023/12/25 02:44:37;;;;;;;2.00;1.30;;;12.00;99.90;;;;;;5136644;28;20445;-64
2023/12/25 02:47:04;;;;;;;1.40;1.30;;;12.00;99.90;;;;;;5136248;28;20434;-65
2023/12/25 02:49:30;;;;;;;1.50;1.17;;;12.00;99.90;;;;;;5136741;28;20454;-65
2023/12/25 02:51:57;;;;;;;1.30;1.30;;;12.00;99.90;;;;;;5136273;28;20446;-65
2023/12/25 02:54:24;;;;;;;2.07;1.00;;;12.00;99.90;;;;;;5136552;27;20445;-66
2023/12/25 02:56:51;;;;;;;5.20;1.47;;;12.00;99.90;;;;;;5136725;28;20981;-65
2023/12/25 02:59:18;;;;;;;1.53;1.43;;;12.10;99.90;;;;;;5136593;28;20466;-65
2023/12/25 03:01:46;;;;;;;2.13;1.33;;;12.00;99.90;;;;;;5136890;28;20449;-65
2023/12/25 03:04:13;;;;;;;1.43;1.33;;;12.00;99.90;;;;;;5136823;28;20814;-64
2023/12/25 03:06:39;;;;;;;1.37;1.30;;;12.00;99.90;;;;;;5137121;28;20442;-65
2023/12/25 03:09:06;;;;;;;1.53;1.43;;;12.00;99.90;;;;;;5136810;28;20449;-65
2023/12/25 03:11:33;;;;;;;1.93;1.83;;;12.00;99.90;;;;;;5118315;28;20438;-65
2023/12/25 03:14:00;;;;;;;1.83;1.70;;;12.00;99.90;;;;;;5137194;28;20468;-65
2023/12/25 03:16:27;;;;;;;1.73;1.40;;;11.90;99.90;;;;;;5139352;27;20997;-65
2023/12/25 03:18:56;;;;;;;2.03;1.43;;;12.00;99.90;;;;;;5140541;27;20445;-65
2023/12/25 03:21:23;;;;;;;2.20;1.70;;;12.00;99.90;;;;;;5140712;27;20524;-65
2023/12/25 03:23:50;;;;;;;2.00;1.83;;;11.90;99.90;;;;;;5140559;27;20444;-65
2023/12/25 03:26:17;;;;;;;3.47;1.70;;;11.90;99.90;;;;;;5122172;27;20449;-65
2023/12/25 03:28:46;;;;;;;2.10;2.00;;;11.90;99.90;;;;;;5140607;27;20442;-65
2023/12/25 03:31:13;;;;;;;3.40;2.17;;;12.00;99.90;;;;;;5140669;27;20494;-65
2023/12/25 03:33:40;;;;;;;2.23;1.97;;;12.00;99.90;;;;;;5122162;27;20863;-65
2023/12/25 03:36:10;;;;;;;3.20;2.70;;;12.00;99.90;;;;;;5122282;27;20445;-65
2023/12/25 03:38:37;;;;;;;3.40;3.10;;;12.00;99.90;;;;;;5121539;27;20530;-65
2023/12/25 03:41:03;;;;;;;8.33;2.10;;;12.00;99.90;;;;;;5140309;27;20465;-65
2023/12/25 03:43:30;;;;;;;3.33;2.20;;;12.00;99.90;;;;;;5140741;27;20434;-65
2023/12/25 03:45:57;;;;;;;2.47;2.27;;;12.00;99.90;;;;;;5140016;27;20445;-65
2023/12/25 03:48:24;;;;;;;3.30;2.00;;;12.00;99.90;;;;;;5140724;27;20442;-65
2023/12/25 03:50:51;;;;;;;3.30;2.10;;;12.00;99.90;;;;;;5140436;27;20490;-65
2023/12/25 03:53:19;;;;;;;2.40;1.93;;;12.00;99.90;;;;;;5138875;27;20457;-65
2023/12/25 03:55:46;;;;;;;2.73;1.90;;;12.10;99.90;;;;;;5137644;27;20514;-65
2023/12/25 03:58:13;;;;;;;3.27;1.80;;;12.10;99.90;;;;;;5137186;27;20998;-65
2023/12/25 04:00:39;;;;;;;2.53;1.80;;;12.10;99.90;;;;;;5139260;27;20457;-65
2023/12/25 04:03:06;;;;;;;3.30;1.50;;;12.10;99.90;;;;;;5141155;27;20433;-66
2023/12/25 04:05:34;;;;;;;2.17;1.40;;;12.10;99.90;;;;;;5145449;27;20438;-65
2023/12/25 04:08:01;;;;;;;3.27;1.50;;;12.10;99.90;;;;;;5146022;27;20438;-65
2023/12/25 04:10:30;;;;;;;6.27;1.73;;;12.20;99.90;;;;;;5145195;27;20469;-65
2023/12/25 04:12:59;;;;;;;6.60;1.90;;;12.10;99.90;;;;;;5144513;27;20442;-65
2023/12/25 04:15:25;;;;;;;2.10;1.40;;;12.20;99.90;;;;;;5144398;27;20438;-65
2023/12/25 04:17:52;;;;;;;2.30;1.50;;;12.20;99.90;;;;;;5142309;27;20473;-65
2023/12/25 04:20:21;;;;;;;2.27;1.40;;;12.20;99.90;;;;;;5142525;27;20458;-65
2023/12/25 04:22:49;;;;;;;5.70;1.53;;;12.20;99.90;;;;;;5123772;27;20446;-65
2023/12/25 04:25:16;;;;;;;2.03;1.50;;;12.20;99.90;;;;;;5140621;27;20470;-65
2023/12/25 04:27:47;;;;;;;1.73;1.50;;;12.20;99.90;;;;;;5120609;27;20495;-65
2023/12/25 04:30:14;;;;;;;2.50;1.53;;;12.10;99.90;;;;;;5140149;27;20499;-64
2023/12/25 04:32:41;;;;;;;1.70;1.60;;;12.10;99.90;;;;;;5143036;27;20517;-64
2023/12/25 04:35:08;;;;;;;1.43;1.20;;;12.10;99.90;;;;;;5140571;27;20468;-65
2023/12/25 04:37:35;;;;;;;1.73;1.40;;;12.10;99.90;;;;;;5122354;27;20481;-65
2023/12/25 04:40:02;;;;;;;1.63;1.43;;;12.10;99.90;;;;;;5140298;27;20469;-64
2023/12/25 04:42:28;;;;;;;1.63;1.47;;;12.10;99.90;;;;;;5140211;27;20460;-65
2023/12/25 04:44:57;;;;;;;1.80;1.60;;;12.10;99.90;;;;;;5139094;27;20450;-65
2023/12/25 04:47:23;;;;;;;1.63;1.50;;;12.00;99.90;;;;;;5139146;27;20473;-65
2023/12/25 04:49:50;;;;;;;1.30;1.27;;;12.10;99.90;;;;;;5139074;27;20457;-65
2023/12/25 04:52:17;;;;;;;1.33;1.20;;;12.10;99.90;;;;;;5138785;27;20927;-65
2023/12/25 04:54:43;;;;;;;1.63;1.20;;;12.10;99.90;;;;;;5139032;27;20474;-65
2023/12/25 04:57:10;;;;;;;2.50;1.40;;;12.10;99.90;;;;;;5138510;27;20485;-65
2023/12/25 04:59:37;;;;;;;1.63;1.43;;;12.10;99.90;;;;;;5138479;27;20458;-65
2023/12/25 05:02:05;;;;;;;1.97;1.77;;;12.10;99.90;;;;;;5138011;27;20447;-65
2023/12/25 05:04:33;;;;;;;3.03;1.30;;;12.10;99.90;;;;;;5138839;27;20442;-65
2023/12/25 05:07:00;;;;;;;1.90;1.43;;;12.10;99.90;;;;;;5137888;27;20976;-65
2023/12/25 05:09:26;;;;;;;1.53;1.43;;;12.10;99.90;;;;;;5138153;27;20889;-64
2023/12/25 05:11:54;;;;;;;1.53;1.43;;;12.10;99.90;;;;;;5138194;27;20850;-65
2023/12/25 05:14:21;;;;;;;3.00;1.63;;;12.10;99.90;;;;;;5138428;27;20445;-64
2023/12/25 05:16:50;;;;;;;2.10;1.13;;;12.10;99.90;;;;;;5138511;27;20445;-64
2023/12/25 05:19:19;;;;;;;1.77;1.37;;;12.10;99.90;;;;;;5138520;27;20472;-64
2023/12/25 05:21:46;;;;;;;7.50;1.80;;;12.00;99.90;;;;;;5138794;27;20442;-65
2023/12/25 05:24:12;;;;;;;1.73;1.23;;;12.00;99.90;;;;;;5138540;27;20438;-64
2023/12/25 05:26:41;;;;;;;2.87;0.90;;;12.00;99.90;;;;;;5138275;27;20954;-65
2023/12/25 05:29:07;;;;;;;2.83;1.10;;;11.90;99.90;;;;;;5119639;27;20470;-65
2023/12/25 05:31:34;;;;;;;1.93;1.23;;;11.90;99.90;;;;;;5119882;27;20446;-65
2023/12/25 05:34:01;;;;;;;1.63;1.10;;;11.90;99.90;;;;;;5139513;27;20468;-65
2023/12/25 05:36:29;;;;;;;2.50;0.90;;;11.90;99.90;;;;;;5140435;27;20442;-65
2023/12/25 05:38:55;;;;;;;2.43;1.00;;;11.90;99.90;;;;;;5140388;27;20478;-65
2023/12/25 05:41:22;;;;;;;2.30;1.10;;;11.90;99.90;;;;;;5140398;27;20476;-65
2023/12/25 05:43:49;;;;;;;1.33;1.23;;;11.90;99.90;;;;;;5140602;27;20441;-65
2023/12/25 05:46:16;;;;;;;0.70;0.70;;;11.90;99.90;;;;;;5140247;27;20931;-64
2023/12/25 05:48:43;;;;;;;1.53;1.43;;;11.90;99.90;;;;;;5140809;27;20442;-65
2023/12/25 05:51:09;;;;;;;1.33;1.00;;;11.90;99.90;;;;;;5139999;27;20507;-65
2023/12/25 05:53:37;;;;;;;1.00;1.00;;;11.90;99.90;;;;;;5139733;27;20791;-64
2023/12/25 05:56:05;;;;;;;2.50;1.50;;;11.90;99.90;;;;;;5139297;27;20449;-65
2023/12/25 05:58:31;;;;;;;2.60;1.00;;;11.90;99.90;;;;;;5138816;27;20470;-64
2023/12/25 06:00:59;;;;;;;2.00;1.50;;;11.90;99.90;;;;;;5138225;27;20470;-64
2023/12/25 06:03:26;;;;;;;2.67;1.23;;;11.90;99.90;;;;;;5139376;27;20811;-64
2023/12/25 06:05:53;;;;;;;4.27;1.10;;;11.90;99.90;;;;;;5140009;27;20935;-65
2023/12/25 06:08:20;;;;;;;1.83;1.10;;;11.90;99.90;;;;;;5139364;27;20438;-65
2023/12/25 06:10:48;;;;;;;2.97;1.47;;;12.00;99.90;;;;;;5138320;27;20466;-65
2023/12/25 06:13:15;;;;;;;3.03;1.17;;;12.00;99.90;;;;;;5138618;27;20437;-65
2023/12/25 06:15:42;;;;;;;2.47;1.30;;;12.00;99.90;;;;;;5139855;27;20915;-65
2023/12/25 06:18:09;;;;;;;3.73;1.53;;;11.90;99.90;;;;;;5120408;27;20505;-65
2023/12/25 06:20:36;;;;;;;3.97;1.70;;;11.90;99.90;;;;;;5139488;28;20465;-64
2023/12/25 06:23:03;;;;;;;1.30;1.17;;;12.00;99.90;;;;;;5139393;28;20441;-65
2023/12/25 06:25:29;;;;;;;3.80;1.10;;;11.90;99.90;;;;;;5139845;28;20434;-65
2023/12/25 06:27:57;;;;;;;1.50;0.80;;;12.00;99.90;;;;;;5139499;28;20450;-64
2023/12/25 06:30:24;;;;;;;2.57;0.90;;;12.00;99.90;;;;;;5136964;28;20979;-64
2023/12/25 06:32:51;;;;;;;3.30;1.07;;;11.90;99.90;;;;;;5135380;28;20453;-64
2023/12/25 06:35:19;;;;;;;1.80;0.90;;;11.90;99.90;;;;;;5118077;28;20452;-64
2023/12/25 06:37:45;;;;;;;2.30;1.27;;;11.90;99.90;;;;;;5117081;28;20494;-64
2023/12/25 06:40:12;;;;;;;5.60;1.33;;;12.00;99.90;;;;;;5117273;28;20483;-65
2023/12/25 06:42:39;;;;;;;1.27;1.10;;;11.90;99.90;;;;;;5136019;28;20450;-65
2023/12/25 06:45:08;;;;;;;1.57;0.80;;;12.00;99.90;;;;;;5137133;28;20498;-64
2023/12/25 06:47:35;;;;;;;1.70;0.80;;;11.90;99.90;;;;;;5143632;28;20434;-64
2023/12/25 06:50:02;;;;;;;1.37;1.03;;;11.90;99.90;;;;;;5136559;27;20462;-65
2023/12/25 06:52:29;;;;;;;1.50;1.10;;;11.90;99.90;;;;;;5122312;27;20455;-65
2023/12/25 06:54:56;;;;;;;2.87;1.30;;;12.00;99.90;;;;;;5140843;27;20453;-65
2023/12/25 06:57:23;;;;;;;1.40;1.10;;;12.00;99.90;;;;;;5141324;27;20453;-64
2023/12/25 06:59:49;;;;;;;1.33;1.00;;;12.00;99.90;;;;;;5142177;27;20462;-64
2023/12/25 07:02:17;;;;;;;1.70;0.80;;;12.00;99.90;;;;;;5142305;27;20446;-65
2023/12/25 07:04:44;;;;;;;0.90;0.90;;;12.00;99.90;;;;;;5143212;27;20446;-65
2023/12/25 07:07:11;;;;;;;2.37;0.90;;;12.10;99.90;;;;;;5142924;27;20442;-65
2023/12/25 07:09:41;;;;;;;1.00;0.70;;;12.00;99.90;;;;;;5142637;27;20450;-65
2023/12/25 07:12:08;;;;;;;1.07;0.80;;;12.00;99.90;;;;;;5142579;27;20430;-65
2023/12/25 07:14:35;;;;;;;1.07;0.90;;;12.10;99.90;;;;;;5143069;27;20446;-65
2023/12/25 07:17:02;;;;;;;0.80;0.80;;;12.00;99.90;;;;;;5143056;27;20442;-65
2023/12/25 07:19:30;;;;;;;4.33;0.90;;;12.00;99.90;;;;;;5143045;27;20488;-65
2023/12/25 07:21:57;;;;;;;1.53;0.70;;;12.00;99.90;;;;;;5142980;27;20446;-65
2023/12/25 07:24:23;;;;;;;1.10;1.00;;;12.00;99.90;;;;;;5143720;27;20445;-65
2023/12/25 07:26:50;;;;;;;1.40;1.30;;;12.00;99.90;;;;;;5142905;27;20465;-65
2023/12/25 07:29:19;;;;;;;1.27;0.70;;;12.10;99.90;;;;;;5142800;27;20458;-65
2023/12/25 07:31:45;;;;;;;0.93;0.70;;;12.10;99.90;;;;;;5142491;27;20442;-65
2023/12/25 07:34:12;;;;;;;1.63;0.60;;;12.10;99.90;;;;;;5143109;27;20465;-65
2023/12/25 07:36:40;;;;;;;1.17;0.70;;;12.10;99.90;;;;;;5124222;27;20870;-65
2023/12/25 07:39:07;;;;;;;0.90;0.60;;;12.10;99.90;;;;;;5142738;27;20478;-65
2023/12/25 07:41:34;;;;;;;0.87;0.60;;;12.10;99.90;;;;;;5142970;27;20445;-66
2023/12/25 07:44:02;;;;;;;1.00;0.70;;;12.10;99.90;;;;;;5143906;27;20849;-66
2023/12/25 07:46:31;;;;;;;2.00;0.80;;;12.10;99.90;;;;;;5143049;27;20442;-66
2023/12/25 07:48:58;;;;;;;0.67;0.57;;;12.20;99.90;;;;;;5125030;27;20458;-66
2023/12/25 07:51:26;;;;;;;1.27;0.70;;;12.20;99.90;;;;;;5123864;27;20441;-66
2023/12/25 07:53:55;;;;;;;1.13;0.70;;;12.20;99.90;;;;;;5141962;27;20444;-66
2023/12/25 07:56:23;;;;;;;0.67;0.67;;;12.20;99.90;;;;;;5142956;27;20468;-66
2023/12/25 07:58:50;;;;;;;1.17;1.17;;;12.20;99.90;;;;;;5141837;27;20485;-66
2023/12/25 08:01:18;;;;;;;0.57;0.57;;;12.30;99.90;;;;;;5138286;27;20450;-66
2023/12/25 08:03:45;;;;;;;1.00;0.80;;;12.30;99.90;;;;;;5138319;27;20442;-66
2023/12/25 08:06:12;;;;;;;1.27;0.70;;;12.30;99.90;;;;;;5139179;27;20446;-66
2023/12/25 08:08:39;;;;;;;1.37;0.60;;;12.30;99.90;;;;;;5138968;27;20471;-66
2023/12/25 08:11:07;;;;;;;0.63;0.30;;;12.30;99.90;;;;;;5138994;27;20462;-66
2023/12/25 08:13:34;;;;;;;0.50;0.43;;;12.30;99.90;;;;;;5138727;27;20438;-66
2023/12/25 08:16:01;;;;;;;0.33;0.30;;;12.40;99.90;;;;;;5139485;27;20438;-66
2023/12/25 08:18:27;;;;;;;1.07;0.40;;;12.40;99.90;;;;;;5139299;27;20474;-66
2023/12/25 08:21:04;;;;;;;0.57;0.30;;;12.40;99.90;;;;;;5140067;27;20462;-66
2023/12/25 08:23:30;;;;;;;0.77;0.40;;;12.40;99.90;;;;;;5139656;27;20433;-66
2023/12/25 08:25:57;;;;;;;2.70;0.50;;;12.40;99.90;;;;;;5137916;27;20958;-66
2023/12/25 08:28:25;;;;;;;0.70;0.60;;;12.40;99.90;;;;;;5137508;27;20792;-66
2023/12/25 08:30:52;;;;;;;0.60;0.60;;;12.40;99.90;;;;;;5138183;27;20464;-66
2023/12/25 08:33:19;;;;;;;0.50;0.40;;;12.50;99.90;;;;;;5138134;27;20444;-66
2023/12/25 08:35:46;;;;;;;0.37;0.37;;;12.50;99.90;;;;;;5137742;27;20507;-66
2023/12/25 08:38:15;;;;;;;1.03;1.00;;;12.50;99.90;;;;;;5137888;27;20905;-66
2023/12/25 08:40:43;;;;;;;0.60;0.50;;;12.60;99.90;;;;;;5120856;27;20826;-66
2023/12/25 08:43:09;;;;;;;0.50;0.40;;;12.60;99.90;;;;;;5138761;27;20434;-66
2023/12/25 08:45:37;;;;;;;1.63;0.30;;;12.60;99.90;;;;;;5138868;27;20445;-66
2023/12/25 08:48:05;;;;;;;0.70;0.70;;;12.50;99.90;;;;;;5138819;27;20450;-66
2023/12/25 08:50:32;;;;;;;0.60;0.37;;;12.60;99.90;;;;;;5120123;27;20865;-66
2023/12/25 08:52:59;;;;;;;0.50;0.40;;;12.50;99.90;;;;;;5138309;27;20446;-66
2023/12/25 08:55:26;;;;;;;0.50;0.50;;;12.50;99.90;;;;;;5137254;27;20450;-66
2023/12/25 08:57:52;;;;;;;0.50;0.40;;;12.50;99.90;;;;;;5138733;27;20437;-66
2023/12/25 09:00:20;;;;;;;0.83;0.60;;;12.60;99.90;;;;;;5138802;27;20489;-66
2023/12/25 09:02:48;;;;;;;0.50;0.50;;;12.60;99.90;;;;;;5133169;27;20470;-66
2023/12/25 09:05:15;;;;;;;2.30;0.60;;;12.50;99.90;;;;;;5136910;27;20525;-67
2023/12/25 09:07:41;;;;;;;0.70;0.60;;;12.60;99.90;;;;;;5137213;27;20438;-66
2023/12/25 09:10:09;;;;;;;0.50;0.40;;;12.60;99.90;;;;;;5136817;27;20987;-66
2023/12/25 09:12:36;;;;;;;2.50;0.40;;;12.60;99.90;;;;;;5136089;27;20819;-66
2023/12/25 09:15:04;;;;;;;1.30;0.57;;;12.60;99.90;;;;;;5136336;27;20922;-66
2023/12/25 09:17:31;;;;;;;1.90;0.60;;;12.70;99.90;;;;;;5136420;27;20887;-66
2023/12/25 09:19:59;;;;;;;0.90;0.33;;;12.70;99.90;;;;;;5136666;27;20857;-66
2023/12/25 09:22:27;;;;;;;0.40;0.37;;;12.60;99.90;;;;;;5137358;27;20446;-66
2023/12/25 09:24:55;;;;;;;0.83;0.60;;;12.70;99.90;;;;;;5137287;27;20441;-66
2023/12/25 09:27:22;;;;;;;1.33;0.40;;;12.60;99.90;;;;;;5137501;27;20942;-66
2023/12/25 09:29:48;;;;;;;2.30;0.60;;;12.60;99.90;;;;;;5137809;27;20454;-66
2023/12/25 09:32:15;;;;;;;0.80;0.80;;;12.70;99.90;;;;;;5138033;27;20444;-66
2023/12/25 09:34:42;;;;;;;1.10;0.70;;;12.70;99.90;;;;;;5138568;27;20446;-66
2023/12/25 09:37:10;;;;;;;0.40;0.40;;;12.70;99.90;;;;;;5138199;27;20446;-66
2023/12/25 09:39:36;;;;;;;2.87;1.03;;;12.70;99.90;;;;;;5138272;27;20489;-66
2023/12/25 09:42:04;;;;;;;0.50;0.50;;;12.60;99.90;;;;;;5138501;27;20460;-66
2023/12/25 09:44:32;;;;;;;0.40;0.30;;;12.70;99.90;;;;;;5138225;27;20493;-66
2023/12/25 09:47:00;;;;;;;0.47;0.40;;;12.70;99.90;;;;;;5139122;27;20450;-66
2023/12/25 09:49:29;;;;;;;0.50;0.50;;;12.60;99.90;;;;;;5138776;27;20505;-66
2023/12/25 09:51:57;;;;;;;1.17;0.47;;;12.60;99.90;;;;;;5138381;27;20960;-66
2023/12/25 09:54:26;;;;;;;0.40;0.30;;;12.60;99.90;;;;;;5138396;27;20438;-67
2023/12/25 09:56:56;;;;;;;0.70;0.40;;;12.50;99.90;;;;;;5138899;27;20491;-66
2023/12/25 09:59:24;;;;;;;0.30;0.30;;;12.50;99.90;;;;;;5138592;27;20569;-66
2023/12/25 10:01:52;;;;;;;0.40;0.40;;;12.50;99.90;;;;;;5119649;27;20872;-66
2023/12/25 10:04:19;;;;;;;0.53;0.30;;;12.50;99.90;;;;;;5139079;27;20438;-66
2023/12/25 10:06:46;;;;;;;1.03;0.40;;;12.50;99.90;;;;;;5138831;27;20512;-66
2023/12/25 10:09:12;;;;;;;0.97;0.40;;;12.60;99.90;;;;;;5138708;27;20975;-66
2023/12/25 10:11:41;;;;;;;0.77;0.40;;;12.60;99.90;;;;;;5138520;27;20813;-66
2023/12/25 10:14:08;;;;;;;2.23;2.03;;;12.70;99.90;;;;;;5138882;27;20438;-66
2023/12/25 10:16:35;;;;;;;0.67;0.57;;;12.70;99.90;;;;;;5138413;27;20446;-66
2023/12/25 10:19:03;;;;;;;1.53;0.40;;;12.70;99.90;;;;;;5138723;27;20500;-66
2023/12/25 10:21:45;;;;;;;0.40;0.30;;;12.70;99.90;;;;;;5138983;28;20448;-66
2023/12/25 10:24:14;;;;;;;0.63;0.37;;;12.60;99.90;;;;;;5138395;27;20555;-66
2023/12/25 10:26:44;;;;;;;0.83;0.43;;;12.60;99.90;;;;;;5138260;28;20441;-66
2023/12/25 10:29:11;;;;;;;0.70;0.50;;;12.70;99.90;;;;;;5138300;28;20462;-66
2023/12/25 10:31:39;;;;;;;0.50;0.50;;;12.70;99.90;;;;;;5138095;28;20445;-66
2023/12/25 10:34:06;;;;;;;0.40;0.40;;;12.70;99.90;;;;;;5137843;28;20512;-66
2023/12/25 10:36:33;;;;;;;0.40;0.30;;;12.70;99.90;;;;;;5137856;28;20438;-66
2023/12/25 10:39:01;;;;;;;1.27;0.40;;;12.60;99.90;;;;;;5137641;28;20485;-66
2023/12/25 10:41:32;;;;;;;3.63;0.40;;;12.60;99.90;;;;;;5137596;28;20444;-66
2023/12/25 10:44:02;;;;;;;0.47;0.47;;;12.60;99.90;;;;;;5137553;28;20427;-66
2023/12/25 10:46:31;;;;;;;0.50;0.50;;;12.50;99.90;;;;;;5138416;28;20430;-66
2023/12/25 10:48:58;;;;;;;0.60;0.60;;;12.50;99.90;;;;;;5138015;28;20473;-65
2023/12/25 10:51:28;;;;;;;0.40;0.40;;;12.60;99.90;;;;;;5119015;28;20494;-66
2023/12/25 10:53:59;;;;;;;1.37;0.70;;;12.60;99.90;;;;;;5137841;28;20769;-66
2023/12/25 10:56:26;;;;;;;0.40;0.40;;;12.50;99.90;;;;;;5137694;28;20523;-66
2023/12/25 10:58:53;;;;;;;0.60;0.60;;;12.60;99.90;;;;;;5118937;28;20450;-66
2023/12/25 11:01:25;;;;;;;0.50;0.50;;;12.60;99.90;;;;;;5137554;28;20438;-66
2023/12/25 11:03:52;;;;;;;0.63;0.60;;;12.60;99.90;;;;;;5138547;28;20422;-66
2023/12/25 11:06:20;;;;;;;0.70;0.70;;;12.70;99.90;;;;;;5137439;28;20442;-66
2023/12/25 11:08:47;;;;;;;1.20;0.80;;;12.60;99.90;;;;;;5137269;28;20927;-66
2023/12/25 11:11:14;;;;;;;0.60;0.60;;;12.70;99.90;;;;;;5119826;28;20458;-66
2023/12/25 11:13:41;;;;;;;0.80;0.80;;;12.80;99.90;;;;;;5138638;28;20445;-66
2023/12/25 11:16:09;;;;;;;1.80;0.83;;;12.80;99.90;;;;;;5138170;28;20807;-66
2023/12/25 11:18:38;;;;;;;1.33;1.00;;;12.80;99.90;;;;;;5149812;28;20445;-66
2023/12/25 11:21:06;;;;;;;2.10;0.90;;;12.80;99.90;;;;;;5134611;28;20571;-66
2023/12/25 11:23:35;;;;;;;0.73;0.73;;;12.90;99.90;;;;;;5134526;28;20934;-66
2023/12/25 11:26:03;;;;;;;0.70;0.70;;;12.90;99.90;;;;;;5135827;28;20442;-66
2023/12/25 11:28:34;;;;;;;0.90;0.90;;;12.90;99.90;;;;;;5117772;28;20991;-66
2023/12/25 11:31:01;;;;;;;0.53;0.53;;;12.90;99.90;;;;;;5137164;28;20457;-66
2023/12/25 11:33:28;;;;;;;0.80;0.80;;;12.90;99.90;;;;;;5137574;28;20441;-66
2023/12/25 11:35:56;;;;;;;1.33;0.50;;;13.10;99.90;;;;;;5138806;27;20465;-66
2023/12/25 11:38:31;;;;;;;1.80;0.70;;;13.10;99.90;;;;;;5141508;27;20437;-66
2023/12/25 11:41:02;;;;;;;0.50;0.50;;;13.20;99.90;;;;;;5141319;27;20516;-66
2023/12/25 11:43:32;;;;;;;1.07;0.77;;;13.10;99.90;;;;;;5139000;27;20430;-66
2023/12/25 11:46:05;;;;;;;0.63;0.63;;;13.10;99.90;;;;;;5139099;27;20498;-66
2023/12/25 11:48:33;;;;;;;0.53;0.50;;;13.20;99.90;;;;;;5141673;27;20811;-66
2023/12/25 11:51:18;;;;;;;1.20;0.80;;;13.20;99.90;;;;;;5126651;27;20462;-66
2023/12/25 11:53:45;;;;;;;0.80;0.70;;;13.30;99.90;;;;;;5144618;27;20418;-66
2023/12/25 11:56:12;;;;;;;0.80;0.80;;;13.30;99.90;;;;;;5144376;27;20977;-66
2023/12/25 11:58:40;;;;;;;0.77;0.77;;;13.30;99.90;;;;;;5143279;27;20465;-66
2023/12/25 12:01:07;;;;;;;1.90;0.70;;;13.30;99.90;;;;;;5142316;27;20547;-66
2023/12/25 12:03:34;;;;;;;0.93;0.70;;;13.30;99.90;;;;;;5142769;27;20471;-66
2023/12/25 12:06:04;;;;;;;1.23;0.90;;;13.30;99.90;;;;;;5143798;27;20450;-66
2023/12/25 12:08:32;;;;;;;2.20;0.93;;;13.40;99.90;;;;;;5142364;27;20450;-66
2023/12/25 12:10:59;;;;;;;0.80;0.73;;;13.40;99.90;;;;;;5141433;27;20457;-66
2023/12/25 12:13:28;;;;;;;1.67;0.67;;;13.40;99.90;;;;;;5142013;27;20818;-66
2023/12/25 12:15:55;;;;;;;1.40;1.30;;;13.40;99.90;;;;;;5141592;27;20442;-66
2023/12/25 12:18:21;;;;;;;0.90;0.60;;;13.40;99.90;;;;;;5141585;27;20446;-66
2023/12/25 12:20:49;;;;;;;0.90;0.90;;;13.40;99.90;;;;;;5140853;27;20488;-66
2023/12/25 12:23:18;;;;;;;0.70;0.70;;;13.30;99.90;;;;;;5140349;27;20446;-66
2023/12/25 12:25:46;;;;;;;0.50;0.50;;;13.30;99.90;;;;;;5141456;27;20442;-66
2023/12/25 12:28:15;;;;;;;0.97;0.87;;;13.30;99.90;;;;;;5141106;27;20441;-66
2023/12/25 12:30:42;;;;;;;1.33;0.70;;;13.40;99.90;;;;;;5122254;27;20503;-66
2023/12/25 12:33:11;;;;;;;0.53;0.53;;;13.40;99.90;;;;;;5140491;27;20821;-66
2023/12/25 12:35:37;;;;;;;0.83;0.83;;;13.30;99.90;;;;;;5141363;27;20450;-66
2023/12/25 12:38:04;;;;;;;1.77;1.23;;;13.30;99.90;;;;;;5141970;27;20442;-66
2023/12/25 12:40:36;;;;;;;0.70;0.70;;;13.30;99.90;;;;;;5140439;27;20850;-66
2023/12/25 12:43:05;;;;;;;0.70;0.70;;;13.20;99.90;;;;;;5141281;27;20426;-66
2023/12/25 12:45:32;;;;;;;1.50;1.03;;;13.20;99.90;;;;;;5141139;27;20453;-66
2023/12/25 12:48:00;;;;;;;1.30;0.80;;;13.30;99.90;;;;;;5140086;27;20543;-66